Seavoyager — 9HUM8 — position and weather

sailwx.info

Track history (hours):
 
Tides and Currents Weather Stations Pressure Air Temp Water Temp Dewpoint Dewpoint Depression Visibility Wind Speed Wind Dir Waves Ship Positions

Seavoyager

Last reported at 2016-Feb-08 12:24 UTC. Time now 2016-Feb-11 02:24 UTC.
Position N 21°53' E 114°22'.

Length 273 m; draft 9.3 m.

Type: Tanker. MMSI: 256439000.

Date/timePositionNaut miles runAvg speedWind from/ knotsBaromVisibWave heightAir tempDewpointWater temp
2016-Feb-08 12:24N 21°53' E 114°22'1011.1
2016-Feb-08 11:32N 22°03' E 114°24'9 7.7
2016-Feb-08 10:22N 22°07' E 114°15'5 4.8
2016-Feb-08 09:25N 22°07' E 114°10'1214.1
2016-Feb-08 08:32N 22°08' E 114°24'  
2016-Feb-04 09:28N 29°36' E 122°26'7 0.3
2016-Feb-03 06:14N 29°41' E 122°20'2 3.5
2016-Feb-03 05:32N 29°43' E 122°20'8 8.6
2016-Feb-03 04:33N 29°50' E 122°13'1110.9
2016-Feb-03 03:33N 29°55' E 122°02'11 9.8
2016-Feb-03 02:29N 30°05' E 121°57'0 0.0
2016-Feb-01 09:05N 30°05' E 121°57'1 1.9
2016-Feb-01 08:32N 30°04' E 121°57'9 8.4
2016-Feb-01 07:32N 29°56' E 122°01'10 9.7
2016-Feb-01 06:32N 29°52' E 122°12'1110.4
2016-Feb-01 05:31N 29°44' E 122°20'5 5.6
2016-Feb-01 04:33N 29°43' E 122°26'9 8.3
2016-Feb-01 03:30N 29°42' E 122°36'7 7.4
2016-Feb-01 02:32N 29°48' E 122°41'0 0.0
2016-Jan-30 03:25N 29°48' E 122°41'  
Track history (hours):
 
Tides and Currents Weather Stations Pressure Air Temp Water Temp Dewpoint Dewpoint Depression Visibility Wind Speed Wind Dir Waves Ship Positions

Seavoyager

Last reported at 2016-Feb-08 12:24 UTC. Time now 2016-Feb-11 02:24 UTC.
Position N 21°53' E 114°22'.

Length 273 m; draft 9.3 m.

Type: Tanker. MMSI: 256439000.

Date/timePositionNaut miles runAvg speedWind from/ knotsBaromVisibWave heightAir tempDewpointWater temp
2016-Feb-08 12:24N 21°53' E 114°22'1011.1
2016-Feb-08 11:32N 22°03' E 114°24'9 7.7
2016-Feb-08 10:22N 22°07' E 114°15'5 4.8
2016-Feb-08 09:25N 22°07' E 114°10'1214.1
2016-Feb-08 08:32N 22°08' E 114°24'  
2016-Feb-04 09:28N 29°36' E 122°26'7 0.3
2016-Feb-03 06:14N 29°41' E 122°20'2 3.5
2016-Feb-03 05:32N 29°43' E 122°20'8 8.6
2016-Feb-03 04:33N 29°50' E 122°13'1110.9
2016-Feb-03 03:33N 29°55' E 122°02'11 9.8
2016-Feb-03 02:29N 30°05' E 121°57'0 0.0
2016-Feb-01 09:05N 30°05' E 121°57'1 1.9
2016-Feb-01 08:32N 30°04' E 121°57'9 8.4
2016-Feb-01 07:32N 29°56' E 122°01'10 9.7
2016-Feb-01 06:32N 29°52' E 122°12'1110.4
2016-Feb-01 05:31N 29°44' E 122°20'5 5.6
2016-Feb-01 04:33N 29°43' E 122°26'9 8.3
2016-Feb-01 03:30N 29°42' E 122°36'7 7.4
2016-Feb-01 02:32N 29°48' E 122°41'0 0.0
2016-Jan-30 03:25N 29°48' E 122°41'  

Dump ship's entire track history